createdAt,value
2022-07-26T00:00:33.377Z,4.47
2022-07-26T00:03:00.618Z,4.55
2022-07-26T00:05:27.829Z,4.68
2022-07-26T00:08:10.796Z,4.15
2022-07-26T00:10:38.121Z,4.20
2022-07-26T00:13:05.341Z,4.28
2022-07-26T00:15:32.489Z,4.13
2022-07-26T00:17:59.707Z,4.30
2022-07-26T00:20:27.602Z,3.92
2022-07-26T00:22:54.951Z,4.05
2022-07-26T00:25:23.803Z,4.13
2022-07-26T00:27:50.968Z,3.92
2022-07-26T00:30:19.180Z,3.78
2022-07-26T00:32:46.319Z,3.97
2022-07-26T00:35:15.738Z,3.90
2022-07-26T00:37:42.918Z,4.10
2022-07-26T00:40:10.074Z,4.40
2022-07-26T00:42:37.290Z,3.95
2022-07-26T00:45:04.428Z,3.97
2022-07-26T00:47:40.476Z,3.80
2022-07-26T00:50:07.588Z,4.05
2022-07-26T00:52:34.707Z,4.05
2022-07-26T00:55:01.848Z,3.80
2022-07-26T00:57:36.558Z,4.15
2022-07-26T01:00:03.738Z,3.78
2022-07-26T01:02:30.902Z,3.50
2022-07-26T01:04:58.058Z,4.03
2022-07-26T01:07:25.349Z,3.97
2022-07-26T01:09:52.522Z,3.80
2022-07-26T01:12:22.128Z,3.90
2022-07-26T01:14:51.987Z,3.90
2022-07-26T01:17:19.111Z,3.70
2022-07-26T01:19:46.229Z,3.90
2022-07-26T01:22:15.839Z,3.65
2022-07-26T01:24:45.481Z,3.50
2022-07-26T01:27:12.604Z,3.53
2022-07-26T01:29:39.790Z,3.45
2022-07-26T01:32:07.990Z,3.50
2022-07-26T01:34:37.829Z,3.80
2022-07-26T01:37:06.088Z,3.25
2022-07-26T01:39:33.199Z,3.50
2022-07-26T01:42:02.205Z,3.63
2022-07-26T01:44:29.322Z,3.30
2022-07-26T01:46:59.334Z,3.30
2022-07-26T01:49:26.476Z,3.42
2022-07-26T01:51:53.623Z,3.45
2022-07-26T01:54:24.463Z,3.35
2022-07-26T01:56:51.801Z,3.42
2022-07-26T01:59:21.265Z,3.70
2022-07-26T02:01:48.485Z,3.13
2022-07-26T02:04:35.979Z,3.47
2022-07-26T02:07:13.167Z,3.13
2022-07-26T02:09:40.523Z,3.10
2022-07-26T02:12:09.865Z,3.30
2022-07-26T02:14:38.126Z,3.35
2022-07-26T02:17:05.262Z,3.30
2022-07-26T02:19:32.392Z,2.97
2022-07-26T02:21:59.511Z,3.00
2022-07-26T02:24:31.561Z,2.95
2022-07-26T02:26:58.761Z,3.00
2022-07-26T02:29:28.375Z,2.90
2022-07-26T02:31:56.125Z,3.10
2022-07-26T02:34:23.261Z,3.00
2022-07-26T02:36:51.541Z,2.90
2022-07-26T02:39:21.497Z,2.83
2022-07-26T02:41:49.333Z,2.72
2022-07-26T02:44:16.514Z,3.00
2022-07-26T02:46:43.718Z,3.00
2022-07-26T02:49:12.338Z,3.00
2022-07-26T02:51:39.502Z,3.15
2022-07-26T02:54:06.941Z,2.63
2022-07-26T02:56:34.318Z,2.80
2022-07-26T02:59:02.449Z,2.80
2022-07-26T03:01:29.712Z,2.78
2022-07-26T03:03:56.949Z,2.80
2022-07-26T03:06:25.139Z,2.78
2022-07-26T03:08:52.315Z,2.55
2022-07-26T03:11:19.421Z,2.90
2022-07-26T03:13:46.548Z,2.63
2022-07-26T03:16:13.772Z,2.70
2022-07-26T03:18:44.596Z,2.75
2022-07-26T03:21:11.709Z,2.60
2022-07-26T03:23:41.293Z,2.60
2022-07-26T03:26:09.020Z,2.60
2022-07-26T03:28:36.265Z,2.72
2022-07-26T03:31:03.614Z,2.90
2022-07-26T03:33:33.265Z,2.50
2022-07-26T03:36:03.106Z,2.40
2022-07-26T03:38:30.811Z,2.40
2022-07-26T03:40:57.957Z,2.70
2022-07-26T03:43:25.070Z,2.90
2022-07-26T03:45:54.625Z,2.63
2022-07-26T03:48:22.117Z,2.78
2022-07-26T03:50:51.562Z,2.60
2022-07-26T03:53:18.697Z,2.40
2022-07-26T03:56:04.811Z,2.50
2022-07-26T03:58:31.943Z,2.53
2022-07-26T04:00:59.049Z,2.90
2022-07-26T04:03:26.158Z,2.40
2022-07-26T04:05:53.292Z,2.30
2022-07-26T04:08:20.407Z,2.38
2022-07-26T04:10:47.535Z,2.35
2022-07-26T04:13:14.677Z,2.30
2022-07-26T04:15:41.773Z,2.30
2022-07-26T04:18:10.290Z,2.50
2022-07-26T04:20:37.465Z,2.30
2022-07-26T04:23:04.633Z,2.22
2022-07-26T04:25:38.654Z,2.30
2022-07-26T04:28:08.662Z,2.17
2022-07-26T04:30:35.939Z,2.38
2022-07-26T04:33:03.239Z,2.22
2022-07-26T04:35:31.483Z,2.45
2022-07-26T04:37:58.727Z,2.25
2022-07-26T04:40:29.263Z,2.40
2022-07-26T04:42:57.683Z,2.40
2022-07-26T04:45:27.313Z,2.13
2022-07-26T04:47:54.545Z,2.45
2022-07-26T04:50:21.805Z,2.38
2022-07-26T04:52:48.984Z,2.20
2022-07-26T04:55:16.209Z,2.28
2022-07-26T04:57:43.403Z,2.25
2022-07-26T05:00:21.317Z,2.10
2022-07-26T05:02:49.820Z,2.20
2022-07-26T05:05:17.081Z,2.10
2022-07-26T05:07:44.216Z,2.15
2022-07-26T05:10:11.339Z,2.10
2022-07-26T05:12:38.497Z,2.17
2022-07-26T05:15:05.605Z,2.30
2022-07-26T05:20:07.856Z,2.20
2022-07-26T05:22:37.447Z,2.00
2022-07-26T05:25:05.975Z,2.08
2022-07-26T05:27:33.092Z,1.80
2022-07-26T05:30:00.186Z,2.20
2022-07-26T05:32:28.296Z,2.30
2022-07-26T05:34:55.475Z,2.20
2022-07-26T05:37:22.592Z,2.22
2022-07-26T05:39:51.942Z,2.00
2022-07-26T05:42:19.046Z,1.95
2022-07-26T05:44:46.223Z,2.10
2022-07-26T05:47:13.582Z,1.92
2022-07-26T05:49:41.008Z,2.10
2022-07-26T05:52:08.220Z,2.17
2022-07-26T05:54:35.358Z,2.28
2022-07-26T05:57:05.340Z,1.92
2022-07-26T05:59:32.445Z,2.25
2022-07-26T06:01:59.639Z,2.00
2022-07-26T06:04:27.388Z,2.05
2022-07-26T06:06:55.022Z,2.30
2022-07-26T06:09:22.418Z,2.08
2022-07-26T06:11:52.003Z,1.77
2022-07-26T06:14:19.123Z,2.00
2022-07-26T06:16:46.351Z,1.90
2022-07-26T06:19:13.704Z,1.83
2022-07-26T06:21:42.218Z,1.90
2022-07-26T06:24:09.799Z,2.00
2022-07-26T06:26:37.290Z,2.30
2022-07-26T06:29:04.392Z,2.22
2022-07-26T06:31:31.534Z,2.10
2022-07-26T06:34:01.553Z,1.95
2022-07-26T06:36:30.782Z,2.08
2022-07-26T06:38:58.402Z,1.90
2022-07-26T06:41:25.521Z,1.92
2022-07-26T06:43:53.956Z,1.88
2022-07-26T06:46:21.487Z,1.95
2022-07-26T06:48:52.670Z,1.98
2022-07-26T06:51:23.773Z,1.80
2022-07-26T06:53:50.905Z,1.98
2022-07-26T06:56:20.268Z,2.10
2022-07-26T06:58:50.191Z,1.90
2022-07-26T07:01:55.694Z,2.00
2022-07-26T07:04:04.449Z,2.05
2022-07-26T07:06:31.655Z,2.10
2022-07-26T07:09:01.686Z,2.13
2022-07-26T07:11:28.811Z,2.22
2022-07-26T07:13:55.956Z,1.90
2022-07-26T07:16:23.111Z,2.20
2022-07-26T07:18:51.404Z,2.10
2022-07-26T07:21:18.517Z,1.90
2022-07-26T07:23:47.632Z,2.10
2022-07-26T07:26:16.913Z,1.80
2022-07-26T07:28:44.058Z,2.38
2022-07-26T07:31:11.261Z,2.15
2022-07-26T07:33:43.836Z,2.05
2022-07-26T07:36:20.198Z,1.88
2022-07-26T07:38:47.313Z,2.28
2022-07-26T07:41:15.547Z,2.33
2022-07-26T07:43:45.121Z,1.90
2022-07-26T07:46:12.972Z,2.25
2022-07-26T07:48:45.056Z,2.10
2022-07-26T07:51:16.840Z,2.50
2022-07-26T07:53:56.129Z,2.40
2022-07-26T07:56:24.528Z,2.50
2022-07-26T07:58:52.247Z,2.42
2022-07-26T08:01:19.561Z,2.42
2022-07-26T08:03:50.355Z,2.28
2022-07-26T08:06:17.940Z,2.28
2022-07-26T08:08:45.048Z,2.50
2022-07-26T08:11:16.253Z,2.00
2022-07-26T08:13:47.738Z,2.30
2022-07-26T08:16:15.629Z,2.30
2022-07-26T08:18:56.130Z,2.60
2022-07-26T08:21:26.336Z,2.25
2022-07-26T08:23:55.972Z,2.30
2022-07-26T08:26:23.074Z,2.08
2022-07-26T08:29:09.211Z,2.30
2022-07-26T08:31:36.449Z,2.15
2022-07-26T08:34:03.645Z,2.13
2022-07-26T08:36:33.124Z,2.15
2022-07-26T08:39:00.436Z,2.17
2022-07-26T08:41:27.548Z,2.35
2022-07-26T08:43:54.675Z,2.17
2022-07-26T08:46:25.303Z,2.10
2022-07-26T08:48:52.946Z,2.10
2022-07-26T08:51:21.274Z,1.98
2022-07-26T08:53:48.388Z,2.08
2022-07-26T08:56:15.524Z,2.30
2022-07-26T08:58:43.553Z,2.10
2022-07-26T09:01:19.878Z,2.00
2022-07-26T09:03:48.560Z,1.90
2022-07-26T09:06:15.793Z,1.83
2022-07-26T09:08:42.904Z,2.15
2022-07-26T09:11:10.016Z,2.03
2022-07-26T09:13:37.125Z,1.90
2022-07-26T09:16:04.346Z,2.00
2022-07-26T09:18:31.473Z,2.00
2022-07-26T09:20:58.969Z,2.28
2022-07-26T09:23:26.621Z,2.08
2022-07-26T09:25:54.917Z,2.03
2022-07-26T09:28:22.114Z,2.28
2022-07-26T09:30:50.453Z,1.83
2022-07-26T09:33:17.597Z,2.20
2022-07-26T09:35:50.732Z,1.88
2022-07-26T09:38:19.102Z,2.60
2022-07-26T09:40:49.621Z,2.28
2022-07-26T09:43:23.686Z,2.20
2022-07-26T09:45:51.926Z,2.20
2022-07-26T09:48:23.824Z,2.15
2022-07-26T09:50:50.975Z,2.00
2022-07-26T09:53:18.209Z,1.70
2022-07-26T09:55:45.440Z,1.80
2022-07-26T09:58:14.103Z,2.00
2022-07-26T10:00:41.452Z,2.17
2022-07-26T10:03:08.609Z,2.10
2022-07-26T10:05:35.782Z,1.75
2022-07-26T10:08:02.893Z,2.17
2022-07-26T10:10:30.056Z,1.90
2022-07-26T10:12:57.897Z,2.00
2022-07-26T10:15:25.054Z,2.20
2022-07-26T10:17:52.215Z,1.90
2022-07-26T10:20:24.758Z,1.90
2022-07-26T10:22:52.008Z,1.80
2022-07-26T10:25:19.507Z,1.85
2022-07-26T10:27:46.911Z,1.95
2022-07-26T10:30:18.163Z,1.92
2022-07-26T10:32:45.294Z,1.77
2022-07-26T10:35:12.622Z,1.85
2022-07-26T10:37:43.658Z,1.60
2022-07-26T10:40:13.124Z,1.75
2022-07-26T10:42:40.249Z,1.80
2022-07-26T10:45:07.361Z,1.80
2022-07-26T10:47:36.748Z,2.08
2022-07-26T10:50:05.786Z,1.80
2022-07-26T10:52:33.517Z,1.70
2022-07-26T10:55:00.720Z,1.83
2022-07-26T10:57:27.850Z,1.70
2022-07-26T10:59:58.013Z,1.80
2022-07-26T11:02:26.376Z,2.00
2022-07-26T11:04:53.527Z,2.10
2022-07-26T11:07:20.668Z,1.65
2022-07-26T11:09:47.776Z,1.67
2022-07-26T11:12:14.930Z,1.90
2022-07-26T11:14:47.946Z,1.80
2022-07-26T11:17:15.463Z,1.92
2022-07-26T11:19:42.570Z,1.70
2022-07-26T11:22:09.716Z,1.70
2022-07-26T11:24:38.540Z,1.85
2022-07-26T11:27:05.641Z,1.50
2022-07-26T11:29:39.088Z,1.52
2022-07-26T11:32:16.431Z,1.73
2022-07-26T11:34:45.471Z,1.73
2022-07-26T11:37:16.853Z,1.70
2022-07-26T11:39:43.998Z,1.58
2022-07-26T11:42:11.829Z,1.50
2022-07-26T11:44:38.953Z,1.50
2022-07-26T11:47:06.063Z,1.58
2022-07-26T11:50:00.209Z,1.70
2022-07-26T11:52:25.330Z,1.83
2022-07-26T11:54:54.763Z,1.50
2022-07-26T11:57:22.249Z,1.70
2022-07-26T11:59:51.169Z,1.40
2022-07-26T12:02:18.286Z,1.48
2022-07-26T12:04:46.600Z,1.48
2022-07-26T12:07:13.787Z,1.48
2022-07-26T12:09:40.957Z,1.50
2022-07-26T12:12:10.728Z,1.40
2022-07-26T12:14:37.935Z,1.45
2022-07-26T12:17:05.064Z,1.45
2022-07-26T12:19:32.279Z,1.30
2022-07-26T12:21:59.441Z,1.73
2022-07-26T12:24:26.545Z,1.30
2022-07-26T12:26:53.664Z,1.42
2022-07-26T12:29:26.726Z,1.30
2022-07-26T12:31:53.838Z,1.45
2022-07-26T12:34:21.053Z,1.38
2022-07-26T12:36:48.463Z,1.42
2022-07-26T12:39:15.666Z,1.38
2022-07-26T12:41:45.690Z,1.33
2022-07-26T12:44:13.412Z,1.50
2022-07-26T12:46:41.032Z,1.35
2022-07-26T12:49:08.289Z,1.13
2022-07-26T12:51:35.582Z,1.30
2022-07-26T12:54:03.637Z,1.52
2022-07-26T12:56:30.759Z,1.33
2022-07-26T12:59:06.699Z,1.20
2022-07-26T13:01:33.947Z,1.20
2022-07-26T13:04:01.145Z,1.10
2022-07-26T13:06:28.620Z,1.33
2022-07-26T13:08:56.715Z,1.48
2022-07-26T13:11:23.970Z,1.58
2022-07-26T13:13:51.091Z,1.30
2022-07-26T13:16:20.810Z,1.20
2022-07-26T13:18:47.931Z,1.30
2022-07-26T13:21:15.044Z,1.45
2022-07-26T13:23:42.144Z,1.35
2022-07-26T13:26:10.234Z,1.50
2022-07-26T13:28:37.514Z,1.30
2022-07-26T13:31:04.682Z,1.17
2022-07-26T13:33:31.902Z,1.10
2022-07-26T13:35:59.055Z,1.10
2022-07-26T13:38:28.399Z,1.30
2022-07-26T13:40:56.594Z,1.30
2022-07-26T13:43:24.434Z,1.30
2022-07-26T13:45:51.623Z,1.25
2022-07-26T13:48:18.759Z,1.30
2022-07-26T13:50:45.911Z,1.33
2022-07-26T13:53:13.022Z,1.40
2022-07-26T13:55:40.147Z,1.30
2022-07-26T13:58:10.045Z,1.25
2022-07-26T14:00:37.545Z,1.30
2022-07-26T14:03:04.757Z,1.40
2022-07-26T14:05:31.920Z,1.20
2022-07-26T14:07:59.028Z,1.30
2022-07-26T14:10:26.378Z,1.77
2022-07-26T14:12:53.729Z,2.97
2022-07-26T14:15:23.177Z,1.73
2022-07-26T14:17:51.136Z,2.30
2022-07-26T14:20:18.416Z,3.17
2022-07-26T14:22:45.539Z,2.50
2022-07-26T14:25:12.774Z,2.63
2022-07-26T14:27:40.055Z,2.15
2022-07-26T14:30:07.333Z,2.50
2022-07-26T14:32:34.478Z,2.10
2022-07-26T14:35:01.591Z,2.03
2022-07-26T14:37:43.762Z,1.73
2022-07-26T14:40:14.372Z,1.73
2022-07-26T14:42:41.577Z,1.83
2022-07-26T14:45:09.929Z,2.00
2022-07-26T14:47:37.398Z,1.85
2022-07-26T14:50:07.222Z,1.90
2022-07-26T14:52:34.914Z,1.70
2022-07-26T14:55:02.072Z,1.52
2022-07-26T14:57:29.220Z,1.58
2022-07-26T14:59:56.329Z,1.90
2022-07-26T15:02:23.546Z,1.38
2022-07-26T15:04:50.824Z,1.80
2022-07-26T15:07:18.411Z,1.40
2022-07-26T15:09:45.556Z,1.30
2022-07-26T15:12:12.668Z,1.30
2022-07-26T15:14:41.116Z,1.10
2022-07-26T15:17:08.375Z,1.17
2022-07-26T15:19:35.539Z,1.10
2022-07-26T15:22:02.910Z,1.40
2022-07-26T15:24:30.852Z,1.40
2022-07-26T15:26:58.051Z,1.30
2022-07-26T15:29:25.643Z,1.40
2022-07-26T15:31:52.945Z,1.23
2022-07-26T15:34:20.278Z,1.40
2022-07-26T15:36:47.399Z,1.17
2022-07-26T15:39:17.341Z,1.30
2022-07-26T15:41:45.312Z,1.40
2022-07-26T15:44:12.951Z,1.17
2022-07-26T15:46:40.266Z,1.10
2022-07-26T15:49:07.617Z,1.20
2022-07-26T15:51:34.883Z,1.20
2022-07-26T15:54:02.253Z,1.30
2022-07-26T15:56:29.564Z,1.00
2022-07-26T15:58:56.676Z,1.30
2022-07-26T16:01:23.953Z,1.10
2022-07-26T16:03:51.615Z,1.08
2022-07-26T16:06:18.825Z,1.00
2022-07-26T16:09:14.015Z,1.00
2022-07-26T16:11:35.508Z,1.10
2022-07-26T16:14:02.706Z,1.55
2022-07-26T16:16:30.074Z,1.05
2022-07-26T16:18:57.418Z,1.50
2022-07-26T16:21:27.091Z,1.55
2022-07-26T16:23:54.258Z,1.50
2022-07-26T16:26:21.364Z,1.10
2022-07-26T16:28:48.478Z,0.98
2022-07-26T16:31:15.615Z,1.10
2022-07-26T16:33:45.887Z,1.10
2022-07-26T16:36:14.310Z,1.00
2022-07-26T16:38:41.489Z,1.25
2022-07-26T16:41:09.948Z,1.40
2022-07-26T16:43:37.073Z,1.27
2022-07-26T16:46:04.205Z,1.10
2022-07-26T16:48:31.418Z,1.30
2022-07-26T16:50:58.565Z,1.20
2022-07-26T16:53:25.685Z,1.85
2022-07-26T16:55:52.830Z,1.35
2022-07-26T16:58:19.958Z,1.23
2022-07-26T17:00:47.300Z,1.30
2022-07-26T17:03:15.897Z,1.30
2022-07-26T17:05:43.870Z,1.20
2022-07-26T17:08:11.011Z,1.40
2022-07-26T17:10:38.149Z,1.20
2022-07-26T17:13:05.261Z,1.20
2022-07-26T17:15:33.436Z,1.10
2022-07-26T17:18:00.538Z,1.20
2022-07-26T17:20:27.650Z,1.20
2022-07-26T17:22:54.817Z,1.20
2022-07-26T17:25:24.444Z,1.20
2022-07-26T17:27:51.567Z,1.20
2022-07-26T17:30:19.634Z,1.23
2022-07-26T17:32:47.128Z,1.20
2022-07-26T17:35:14.294Z,0.98
2022-07-26T17:37:41.469Z,1.10
2022-07-26T17:40:08.565Z,1.20
2022-07-26T17:42:36.011Z,1.17
2022-07-26T17:45:03.141Z,1.13
2022-07-26T17:47:31.707Z,1.20
2022-07-26T17:50:08.919Z,1.10
2022-07-26T17:52:45.987Z,1.30
2022-07-26T17:55:13.104Z,1.40
2022-07-26T17:57:40.207Z,1.15
2022-07-26T18:00:07.338Z,1.10
2022-07-26T18:02:34.574Z,1.10
2022-07-26T18:05:03.104Z,1.27
2022-07-26T18:07:30.299Z,1.50
2022-07-26T18:09:57.435Z,1.70
2022-07-26T18:12:26.793Z,1.50
2022-07-26T18:14:56.371Z,1.50
2022-07-26T18:17:23.537Z,1.50
2022-07-26T18:19:50.637Z,1.40
2022-07-26T18:22:17.772Z,1.63
2022-07-26T18:24:44.869Z,1.70
2022-07-26T18:27:13.034Z,1.80
2022-07-26T18:29:41.522Z,1.88
2022-07-26T18:32:11.352Z,3.17
2022-07-26T18:34:38.841Z,1.65
2022-07-26T18:37:05.948Z,1.92
2022-07-26T18:39:33.328Z,1.65
2022-07-26T18:42:01.760Z,1.30
2022-07-26T18:44:30.253Z,1.42
2022-07-26T18:46:57.413Z,1.40
2022-07-26T18:49:30.922Z,1.20
2022-07-26T18:52:01.713Z,1.20
2022-07-26T18:54:32.660Z,1.17
2022-07-26T18:56:59.788Z,1.15
2022-07-26T18:59:26.982Z,1.30
2022-07-26T19:01:56.645Z,1.30
2022-07-26T19:04:28.096Z,1.40
2022-07-26T19:06:57.080Z,2.50
2022-07-26T19:09:24.292Z,1.80
2022-07-26T19:11:52.570Z,2.00
2022-07-26T19:14:19.702Z,2.10
2022-07-26T19:16:46.814Z,2.05
2022-07-26T19:19:15.371Z,1.80
2022-07-26T19:21:46.787Z,1.63
2022-07-26T19:24:13.919Z,1.40
2022-07-26T19:26:41.018Z,1.38
2022-07-26T19:29:09.754Z,1.50
2022-07-26T19:31:39.700Z,1.83
2022-07-26T19:34:06.845Z,1.60
2022-07-26T19:36:36.809Z,1.42
2022-07-26T19:39:04.129Z,1.40
2022-07-26T19:41:31.268Z,1.20
2022-07-26T19:43:58.409Z,1.45
2022-07-26T19:46:25.678Z,1.38
2022-07-26T19:48:55.928Z,1.20
2022-07-26T19:51:26.787Z,1.48
2022-07-26T19:54:42.590Z,1.30
2022-07-26T19:56:45.524Z,1.40
2022-07-26T19:59:13.101Z,1.20
2022-07-26T20:01:41.552Z,1.40
2022-07-26T20:04:08.732Z,1.33
2022-07-26T20:06:41.991Z,1.52
2022-07-26T20:09:10.109Z,1.50
2022-07-26T20:11:40.154Z,1.40
2022-07-26T20:14:07.296Z,1.38
2022-07-26T20:16:37.328Z,1.50
2022-07-26T20:19:04.629Z,1.33
2022-07-26T20:21:33.047Z,1.40
2022-07-26T20:24:00.152Z,1.55
2022-07-26T20:26:30.210Z,1.30
2022-07-26T20:28:59.101Z,1.20
2022-07-26T20:31:26.280Z,1.40
2022-07-26T20:33:53.469Z,1.30
2022-07-26T20:36:23.113Z,1.30
2022-07-26T20:38:51.731Z,1.50
2022-07-26T20:41:24.385Z,1.10
2022-07-26T20:43:52.677Z,1.40
2022-07-26T20:46:26.089Z,1.25
2022-07-26T20:48:53.647Z,1.40
2022-07-26T20:51:20.987Z,1.30
2022-07-26T20:53:48.083Z,1.50
2022-07-26T20:56:15.234Z,1.30
2022-07-26T20:58:42.372Z,1.45
2022-07-26T21:01:13.766Z,1.30
2022-07-26T21:03:41.041Z,1.40
2022-07-26T21:06:08.562Z,1.30
2022-07-26T21:08:35.671Z,1.63
2022-07-26T21:11:05.444Z,1.38
2022-07-26T21:13:35.307Z,1.35
2022-07-26T21:16:10.146Z,1.38
2022-07-26T21:18:40.410Z,1.20
2022-07-26T21:21:07.573Z,1.30
2022-07-26T21:23:34.678Z,1.30
2022-07-26T21:26:01.820Z,1.50
2022-07-26T21:28:31.207Z,1.33
2022-07-26T21:30:59.703Z,1.30
2022-07-26T21:33:29.025Z,1.30
2022-07-26T21:35:58.065Z,1.20
2022-07-26T21:38:32.489Z,1.20
2022-07-26T21:41:01.070Z,1.30
2022-07-26T21:43:28.200Z,1.40
2022-07-26T21:45:55.380Z,1.20
2022-07-26T21:48:27.260Z,1.33
2022-07-26T21:50:54.361Z,1.30
2022-07-26T21:53:23.724Z,1.10
2022-07-26T21:55:50.897Z,1.20
2022-07-26T21:58:25.354Z,1.20
2022-07-26T22:01:06.155Z,1.25
2022-07-26T22:03:34.322Z,1.30
2022-07-26T22:06:02.641Z,1.40
2022-07-26T22:08:33.785Z,1.30
2022-07-26T22:11:00.922Z,1.20
2022-07-26T22:13:31.669Z,1.23
2022-07-26T22:16:00.263Z,1.20
2022-07-26T22:18:27.564Z,1.20
2022-07-26T22:20:54.677Z,1.20
2022-07-26T22:23:24.215Z,1.20
2022-07-26T22:25:54.031Z,1.20
2022-07-26T22:28:21.150Z,1.30
2022-07-26T22:30:48.519Z,1.00
2022-07-26T22:33:15.703Z,1.20
2022-07-26T22:35:44.231Z,1.20
2022-07-26T22:38:12.739Z,1.20
2022-07-26T22:40:42.175Z,1.25
2022-07-26T22:43:10.377Z,1.23
2022-07-26T22:45:40.290Z,1.30
2022-07-26T22:48:08.143Z,1.10
2022-07-26T22:50:35.343Z,1.33
2022-07-26T22:53:02.519Z,1.25
2022-07-26T22:55:29.620Z,1.10
2022-07-26T22:57:56.734Z,1.20
2022-07-26T23:00:27.193Z,1.08
2022-07-26T23:02:56.516Z,1.20
2022-07-26T23:05:26.087Z,1.10
2022-07-26T23:08:36.692Z,1.08
2022-07-26T23:10:59.484Z,1.30
2022-07-26T23:13:28.810Z,1.00
2022-07-26T23:16:01.280Z,1.00
2022-07-26T23:18:28.973Z,1.20
2022-07-26T23:20:56.065Z,1.23
2022-07-26T23:23:23.186Z,1.20
2022-07-26T23:25:54.911Z,1.50
2022-07-26T23:28:35.783Z,1.23
2022-07-26T23:31:05.354Z,1.10
2022-07-26T23:33:52.742Z,1.25
2022-07-26T23:36:23.405Z,1.20
2022-07-26T23:38:50.508Z,1.30
2022-07-26T23:41:19.842Z,1.17
2022-07-26T23:43:46.935Z,1.20
2022-07-26T23:46:14.093Z,1.13
2022-07-26T23:48:41.342Z,1.30
2022-07-26T23:51:11.542Z,1.40
2022-07-26T23:53:38.658Z,1.30
2022-07-26T23:56:05.772Z,1.23
2022-07-26T23:58:32.903Z,1.23
